Tabas, Iran
Current Conditions -  °F | °C
As of 7:00 AM on Thursday 29 Jan 2015 (Local Time) from OIMB Reporting Station
Scattered Clouds Scattered Clouds  
Wind Chill:   Ceiling: Unl
Heat Index:   Visibility: 6mi
Dew Point: -7°   Wind: 9mph
Humidity: 42%   Direction: 70°ENE
Pressure: 30.06"   Gusts: NA
Location:  33.59°N, 56.92°E
Report Text: OIMB 290400Z 07008KT 9999 FEW040 SCT100 05/M07 Q1018
Loading
Personal Weather Stations






























Interactive Weather Map New forecast layout! Learn more

10-Day Weather Forecast

Advertisements
Track Severe Weather on mobile